sensor_id;sensor_type;location;lat;lon;timestamp;P1;durP1;ratioP1;P2;durP2;ratioP2
79438;SDS011;68889;48.232;10.110;2023-07-29T07:45:59;4.03;;;2.85;;
79438;SDS011;68889;48.232;10.110;2023-07-29T07:50:00;4.03;;;1.60;;
79438;SDS011;68889;48.232;10.110;2023-07-29T07:56:12;3.97;;;1.35;;
79438;SDS011;68889;48.232;10.110;2023-07-29T07:58:38;2.25;;;1.20;;
79438;SDS011;68889;48.232;10.110;2023-07-29T08:01:59;3.33;;;1.17;;
79438;SDS011;68889;48.232;10.110;2023-07-29T08:06:04;2.20;;;1.40;;
79438;SDS011;68889;48.232;10.110;2023-07-29T08:15:31;2.92;;;1.40;;
79438;SDS011;68889;48.232;10.110;2023-07-29T08:17:56;3.67;;;0.88;;
79438;SDS011;68889;48.232;10.110;2023-07-29T08:43:18;8.75;;;4.13;;
79438;SDS011;68889;48.232;10.110;2023-07-29T08:45:48;8.18;;;4.60;;
79438;SDS011;68889;48.232;10.110;2023-07-29T08:48:16;12.27;;;4.60;;
79438;SDS011;68889;48.232;10.110;2023-07-29T08:50:48;9.52;;;4.32;;
79438;SDS011;68889;48.232;10.110;2023-07-29T08:53:15;5.82;;;3.50;;
79438;SDS011;68889;48.232;10.110;2023-07-29T08:55:41;14.98;;;4.63;;
79438;SDS011;68889;48.232;10.110;2023-07-29T08:58:07;28.98;;;8.07;;
79438;SDS011;68889;48.232;10.110;2023-07-29T09:00:33;5.47;;;3.63;;
79438;SDS011;68889;48.232;10.110;2023-07-29T09:02:59;3.90;;;3.13;;
79438;SDS011;68889;48.232;10.110;2023-07-29T09:05:31;10.70;;;4.45;;
79438;SDS011;68889;48.232;10.110;2023-07-29T09:07:58;5.60;;;3.85;;
79438;SDS011;68889;48.232;10.110;2023-07-29T09:10:25;5.32;;;3.55;;
79438;SDS011;68889;48.232;10.110;2023-07-29T09:12:51;5.25;;;3.45;;
79438;SDS011;68889;48.232;10.110;2023-07-29T09:15:27;4.35;;;3.75;;
79438;SDS011;68889;48.232;10.110;2023-07-29T09:17:57;5.25;;;3.60;;
79438;SDS011;68889;48.232;10.110;2023-07-29T09:20:24;4.18;;;3.28;;
79438;SDS011;68889;48.232;10.110;2023-07-29T09:22:57;10.63;;;5.05;;
79438;SDS011;68889;48.232;10.110;2023-07-29T09:25:27;5.43;;;3.50;;
79438;SDS011;68889;48.232;10.110;2023-07-29T09:28:00;3.97;;;3.10;;
79438;SDS011;68889;48.232;10.110;2023-07-29T09:30:26;3.58;;;2.95;;
79438;SDS011;68889;48.232;10.110;2023-07-29T09:32:56;4.72;;;3.20;;
79438;SDS011;68889;48.232;10.110;2023-07-29T09:35:22;5.43;;;3.55;;
79438;SDS011;68889;48.232;10.110;2023-07-29T09:37:49;4.32;;;3.65;;
79438;SDS011;68889;48.232;10.110;2023-07-29T09:40:16;5.70;;;3.78;;
79438;SDS011;68889;48.232;10.110;2023-07-29T09:42:49;3.97;;;3.58;;
79438;SDS011;68889;48.232;10.110;2023-07-29T09:45:26;4.95;;;3.95;;
79438;SDS011;68889;48.232;10.110;2023-07-29T09:47:53;5.68;;;3.40;;
79438;SDS011;68889;48.232;10.110;2023-07-29T09:50:22;3.90;;;3.40;;
79438;SDS011;68889;48.232;10.110;2023-07-29T09:52:52;5.03;;;3.35;;
79438;SDS011;68889;48.232;10.110;2023-07-29T09:55:19;3.72;;;3.20;;
79438;SDS011;68889;48.232;10.110;2023-07-29T09:57:46;3.83;;;2.53;;
79438;SDS011;68889;48.232;10.110;2023-07-29T10:00:12;2.90;;;2.42;;
79438;SDS011;68889;48.232;10.110;2023-07-29T10:02:41;3.42;;;2.65;;
79438;SDS011;68889;48.232;10.110;2023-07-29T10:05:08;4.78;;;2.83;;
79438;SDS011;68889;48.232;10.110;2023-07-29T10:07:38;4.00;;;2.88;;
79438;SDS011;68889;48.232;10.110;2023-07-29T10:10:05;3.50;;;2.60;;
79438;SDS011;68889;48.232;10.110;2023-07-29T10:12:32;5.20;;;2.78;;
79438;SDS011;68889;48.232;10.110;2023-07-29T10:14:59;3.83;;;2.53;;
79438;SDS011;68889;48.232;10.110;2023-07-29T10:17:27;2.90;;;2.50;;
79438;SDS011;68889;48.232;10.110;2023-07-29T10:19:56;3.30;;;2.88;;
79438;SDS011;68889;48.232;10.110;2023-07-29T10:22:24;3.30;;;2.53;;
79438;SDS011;68889;48.232;10.110;2023-07-29T10:24:53;2.92;;;2.60;;
79438;SDS011;68889;48.232;10.110;2023-07-29T10:27:24;3.20;;;2.55;;
79438;SDS011;68889;48.232;10.110;2023-07-29T10:29:51;5.97;;;3.08;;
79438;SDS011;68889;48.232;10.110;2023-07-29T10:32:19;4.68;;;2.80;;
79438;SDS011;68889;48.232;10.110;2023-07-29T10:34:49;2.92;;;2.20;;
79438;SDS011;68889;48.232;10.110;2023-07-29T10:37:15;3.70;;;2.80;;
79438;SDS011;68889;48.232;10.110;2023-07-29T10:39:45;4.03;;;2.58;;
79438;SDS011;68889;48.232;10.110;2023-07-29T10:42:17;3.55;;;2.80;;
79438;SDS011;68889;48.232;10.110;2023-07-29T10:44:47;3.53;;;2.53;;
79438;SDS011;68889;48.232;10.110;2023-07-29T10:47:26;3.75;;;2.60;;
79438;SDS011;68889;48.232;10.110;2023-07-29T10:49:55;5.10;;;3.00;;
79438;SDS011;68889;48.232;10.110;2023-07-29T10:55:02;2.58;;;2.25;;
79438;SDS011;68889;48.232;10.110;2023-07-29T10:57:38;3.42;;;2.60;;
79438;SDS011;68889;48.232;10.110;2023-07-29T11:00:06;3.55;;;2.97;;
79438;SDS011;68889;48.232;10.110;2023-07-29T11:02:36;4.80;;;3.08;;
79438;SDS011;68889;48.232;10.110;2023-07-29T11:05:18;3.83;;;2.67;;
79438;SDS011;68889;48.232;10.110;2023-07-29T11:07:49;3.85;;;3.10;;
79438;SDS011;68889;48.232;10.110;2023-07-29T11:10:15;9.77;;;3.10;;
79438;SDS011;68889;48.232;10.110;2023-07-29T11:12:47;3.70;;;3.03;;
79438;SDS011;68889;48.232;10.110;2023-07-29T11:15:17;5.65;;;3.30;;
79438;SDS011;68889;48.232;10.110;2023-07-29T11:17:45;4.45;;;3.05;;
79438;SDS011;68889;48.232;10.110;2023-07-29T11:20:13;5.25;;;3.80;;
79438;SDS011;68889;48.232;10.110;2023-07-29T11:22:39;4.30;;;3.38;;
79438;SDS011;68889;48.232;10.110;2023-07-29T11:25:06;5.05;;;3.55;;
79438;SDS011;68889;48.232;10.110;2023-07-29T11:27:34;5.60;;;3.80;;
79438;SDS011;68889;48.232;10.110;2023-07-29T11:30:00;4.55;;;3.78;;
79438;SDS011;68889;48.232;10.110;2023-07-29T11:32:27;5.18;;;3.53;;
79438;SDS011;68889;48.232;10.110;2023-07-29T11:34:53;4.47;;;3.78;;
79438;SDS011;68889;48.232;10.110;2023-07-29T11:37:21;4.00;;;3.35;;
79438;SDS011;68889;48.232;10.110;2023-07-29T11:39:47;4.55;;;3.55;;
79438;SDS011;68889;48.232;10.110;2023-07-29T11:42:16;3.72;;;2.78;;
79438;SDS011;68889;48.232;10.110;2023-07-29T11:44:42;4.18;;;2.90;;
79438;SDS011;68889;48.232;10.110;2023-07-29T11:47:08;3.58;;;2.88;;
79438;SDS011;68889;48.232;10.110;2023-07-29T11:49:35;3.03;;;2.38;;
79438;SDS011;68889;48.232;10.110;2023-07-29T11:52:07;4.00;;;3.30;;
79438;SDS011;68889;48.232;10.110;2023-07-29T11:54:38;3.42;;;2.65;;
79438;SDS011;68889;48.232;10.110;2023-07-29T11:57:08;3.20;;;2.80;;
79438;SDS011;68889;48.232;10.110;2023-07-29T11:59:34;3.28;;;2.80;;
79438;SDS011;68889;48.232;10.110;2023-07-29T12:02:01;3.85;;;2.47;;
79438;SDS011;68889;48.232;10.110;2023-07-29T12:04:30;4.03;;;2.28;;
79438;SDS011;68889;48.232;10.110;2023-07-29T12:06:59;2.83;;;2.20;;
79438;SDS011;68889;48.232;10.110;2023-07-29T12:09:25;3.35;;;2.50;;
79438;SDS011;68889;48.232;10.110;2023-07-29T12:11:52;3.17;;;2.33;;
79438;SDS011;68889;48.232;10.110;2023-07-29T12:14:18;2.97;;;2.42;;
79438;SDS011;68889;48.232;10.110;2023-07-29T12:16:44;3.38;;;2.10;;
79438;SDS011;68889;48.232;10.110;2023-07-29T12:19:14;2.83;;;2.20;;
79438;SDS011;68889;48.232;10.110;2023-07-29T12:21:43;2.75;;;2.30;;
79438;SDS011;68889;48.232;10.110;2023-07-29T12:24:09;3.70;;;2.25;;
79438;SDS011;68889;48.232;10.110;2023-07-29T12:26:39;2.75;;;2.30;;
79438;SDS011;68889;48.232;10.110;2023-07-29T12:29:12;3.00;;;2.28;;
79438;SDS011;68889;48.232;10.110;2023-07-29T12:31:38;3.15;;;2.28;;
79438;SDS011;68889;48.232;10.110;2023-07-29T12:34:03;2.67;;;2.40;;
79438;SDS011;68889;48.232;10.110;2023-07-29T12:39:29;2.88;;;2.30;;
79438;SDS011;68889;48.232;10.110;2023-07-29T12:41:58;3.10;;;2.47;;
79438;SDS011;68889;48.232;10.110;2023-07-29T12:44:25;2.97;;;2.35;;
79438;SDS011;68889;48.232;10.110;2023-07-29T12:47:01;2.83;;;2.53;;
79438;SDS011;68889;48.232;10.110;2023-07-29T12:49:28;2.90;;;2.20;;
79438;SDS011;68889;48.232;10.110;2023-07-29T12:51:57;2.95;;;2.40;;
79438;SDS011;68889;48.232;10.110;2023-07-29T12:54:23;3.75;;;2.10;;
79438;SDS011;68889;48.232;10.110;2023-07-29T12:56:49;2.83;;;2.13;;
79438;SDS011;68889;48.232;10.110;2023-07-29T12:59:14;2.15;;;1.65;;
79438;SDS011;68889;48.232;10.110;2023-07-29T13:01:40;1.90;;;1.63;;
79438;SDS011;68889;48.232;10.110;2023-07-29T13:04:06;3.08;;;2.08;;
79438;SDS011;68889;48.232;10.110;2023-07-29T13:06:31;3.55;;;2.13;;
79438;SDS011;68889;48.232;10.110;2023-07-29T13:08:57;3.30;;;1.90;;
79438;SDS011;68889;48.232;10.110;2023-07-29T13:11:23;2.78;;;1.80;;
79438;SDS011;68889;48.232;10.110;2023-07-29T13:13:49;2.20;;;1.80;;
79438;SDS011;68889;48.232;10.110;2023-07-29T13:16:14;1.90;;;1.60;;
79438;SDS011;68889;48.232;10.110;2023-07-29T13:18:40;2.33;;;1.60;;
79438;SDS011;68889;48.232;10.110;2023-07-29T13:21:06;3.22;;;1.95;;
79438;SDS011;68889;48.232;10.110;2023-07-29T13:23:32;2.58;;;1.92;;
79438;SDS011;68889;48.232;10.110;2023-07-29T13:25:57;2.30;;;1.70;;
79438;SDS011;68889;48.232;10.110;2023-07-29T13:28:23;3.08;;;1.88;;
79438;SDS011;68889;48.232;10.110;2023-07-29T13:30:49;2.22;;;1.80;;
79438;SDS011;68889;48.232;10.110;2023-07-29T13:33:14;2.20;;;1.67;;
79438;SDS011;68889;48.232;10.110;2023-07-29T13:35:40;2.05;;;1.52;;
79438;SDS011;68889;48.232;10.110;2023-07-29T13:38:06;2.50;;;2.17;;
79438;SDS011;68889;48.232;10.110;2023-07-29T13:40:31;2.88;;;1.75;;
79438;SDS011;68889;48.232;10.110;2023-07-29T13:42:57;2.25;;;1.50;;
79438;SDS011;68889;48.232;10.110;2023-07-29T13:45:22;2.42;;;1.80;;
79438;SDS011;68889;48.232;10.110;2023-07-29T13:47:48;2.65;;;1.60;;
79438;SDS011;68889;48.232;10.110;2023-07-29T13:50:15;2.00;;;1.40;;
79438;SDS011;68889;48.232;10.110;2023-07-29T13:52:41;2.30;;;1.67;;
79438;SDS011;68889;48.232;10.110;2023-07-29T13:55:06;3.05;;;1.63;;
79438;SDS011;68889;48.232;10.110;2023-07-29T13:57:32;1.90;;;1.30;;
79438;SDS011;68889;48.232;10.110;2023-07-29T14:00:03;2.08;;;1.63;;
79438;SDS011;68889;48.232;10.110;2023-07-29T14:02:29;2.50;;;1.65;;
79438;SDS011;68889;48.232;10.110;2023-07-29T14:04:56;2.58;;;1.70;;
79438;SDS011;68889;48.232;10.110;2023-07-29T14:07:22;2.05;;;1.52;;
79438;SDS011;68889;48.232;10.110;2023-07-29T14:09:47;2.42;;;1.70;;
79438;SDS011;68889;48.232;10.110;2023-07-29T14:12:13;2.40;;;1.60;;
79438;SDS011;68889;48.232;10.110;2023-07-29T14:14:40;2.45;;;1.50;;
79438;SDS011;68889;48.232;10.110;2023-07-29T14:17:05;2.05;;;1.30;;
79438;SDS011;68889;48.232;10.110;2023-07-29T14:19:32;2.85;;;1.55;;
79438;SDS011;68889;48.232;10.110;2023-07-29T14:22:00;2.03;;;1.50;;
79438;SDS011;68889;48.232;10.110;2023-07-29T14:24:26;2.65;;;1.73;;
79438;SDS011;68889;48.232;10.110;2023-07-29T14:26:51;1.85;;;1.40;;
79438;SDS011;68889;48.232;10.110;2023-07-29T14:29:17;2.65;;;1.58;;
79438;SDS011;68889;48.232;10.110;2023-07-29T14:31:43;2.55;;;1.70;;
79438;SDS011;68889;48.232;10.110;2023-07-29T14:34:09;2.83;;;1.90;;
79438;SDS011;68889;48.232;10.110;2023-07-29T14:36:35;2.47;;;2.08;;
79438;SDS011;68889;48.232;10.110;2023-07-29T14:39:01;3.80;;;1.85;;
79438;SDS011;68889;48.232;10.110;2023-07-29T14:41:27;2.97;;;1.83;;
79438;SDS011;68889;48.232;10.110;2023-07-29T14:43:53;3.05;;;2.25;;
79438;SDS011;68889;48.232;10.110;2023-07-29T14:46:18;2.40;;;1.80;;
79438;SDS011;68889;48.232;10.110;2023-07-29T14:48:44;2.95;;;2.15;;
79438;SDS011;68889;48.232;10.110;2023-07-29T14:51:11;2.20;;;2.00;;
79438;SDS011;68889;48.232;10.110;2023-07-29T14:53:40;3.60;;;2.08;;
79438;SDS011;68889;48.232;10.110;2023-07-29T14:56:05;3.25;;;2.40;;
79438;SDS011;68889;48.232;10.110;2023-07-29T14:58:31;3.03;;;2.42;;
79438;SDS011;68889;48.232;10.110;2023-07-29T15:00:57;4.30;;;2.38;;
79438;SDS011;68889;48.232;10.110;2023-07-29T15:03:23;3.28;;;2.17;;
79438;SDS011;68889;48.232;10.110;2023-07-29T15:05:49;3.53;;;2.05;;
79438;SDS011;68889;48.232;10.110;2023-07-29T15:08:15;3.85;;;2.47;;
79438;SDS011;68889;48.232;10.110;2023-07-29T15:10:44;3.90;;;2.45;;
79438;SDS011;68889;48.232;10.110;2023-07-29T15:13:10;3.50;;;2.30;;
79438;SDS011;68889;48.232;10.110;2023-07-29T15:15:36;2.80;;;2.20;;
79438;SDS011;68889;48.232;10.110;2023-07-29T15:18:04;2.97;;;2.20;;
79438;SDS011;68889;48.232;10.110;2023-07-29T15:20:29;3.35;;;1.90;;
79438;SDS011;68889;48.232;10.110;2023-07-29T15:22:55;3.00;;;1.98;;
79438;SDS011;68889;48.232;10.110;2023-07-29T15:25:20;2.45;;;2.00;;
79438;SDS011;68889;48.232;10.110;2023-07-29T15:27:46;2.92;;;2.00;;
79438;SDS011;68889;48.232;10.110;2023-07-29T15:30:12;3.20;;;2.33;;
79438;SDS011;68889;48.232;10.110;2023-07-29T15:32:37;3.35;;;2.20;;
79438;SDS011;68889;48.232;10.110;2023-07-29T15:35:03;3.30;;;2.30;;
79438;SDS011;68889;48.232;10.110;2023-07-29T15:37:29;2.90;;;2.13;;
79438;SDS011;68889;48.232;10.110;2023-07-29T15:39:54;3.03;;;2.10;;
79438;SDS011;68889;48.232;10.110;2023-07-29T15:42:20;3.20;;;2.40;;
79438;SDS011;68889;48.232;10.110;2023-07-29T15:44:46;3.47;;;2.75;;
79438;SDS011;68889;48.232;10.110;2023-07-29T15:47:11;3.83;;;2.38;;
79438;SDS011;68889;48.232;10.110;2023-07-29T15:49:40;3.30;;;2.47;;
79438;SDS011;68889;48.232;10.110;2023-07-29T15:52:06;3.42;;;2.42;;
79438;SDS011;68889;48.232;10.110;2023-07-29T15:54:33;3.58;;;2.42;;
79438;SDS011;68889;48.232;10.110;2023-07-29T15:56:59;3.05;;;2.53;;
79438;SDS011;68889;48.232;10.110;2023-07-29T15:59:24;3.28;;;1.92;;
79438;SDS011;68889;48.232;10.110;2023-07-29T16:01:51;3.30;;;2.35;;
79438;SDS011;68889;48.232;10.110;2023-07-29T16:04:16;3.20;;;2.00;;
79438;SDS011;68889;48.232;10.110;2023-07-29T16:09:07;2.65;;;1.80;;
79438;SDS011;68889;48.232;10.110;2023-07-29T16:13:58;3.33;;;1.65;;
79438;SDS011;68889;48.232;10.110;2023-07-29T16:16:24;2.70;;;1.73;;
79438;SDS011;68889;48.232;10.110;2023-07-29T16:18:49;2.03;;;1.70;;
79438;SDS011;68889;48.232;10.110;2023-07-29T16:23:40;2.55;;;1.77;;
79438;SDS011;68889;48.232;10.110;2023-07-29T16:26:06;3.78;;;1.98;;
79438;SDS011;68889;48.232;10.110;2023-07-29T16:28:32;4.97;;;1.90;;
79438;SDS011;68889;48.232;10.110;2023-07-29T16:30:57;3.60;;;2.22;;
79438;SDS011;68889;48.232;10.110;2023-07-29T16:35:48;2.83;;;2.20;;
79438;SDS011;68889;48.232;10.110;2023-07-29T16:40:39;3.33;;;2.53;;
79438;SDS011;68889;48.232;10.110;2023-07-29T16:43:05;4.28;;;2.40;;
79438;SDS011;68889;48.232;10.110;2023-07-29T16:45:30;3.28;;;2.20;;
79438;SDS011;68889;48.232;10.110;2023-07-29T16:50:21;4.00;;;2.55;;
79438;SDS011;68889;48.232;10.110;2023-07-29T16:52:47;4.63;;;2.45;;
79438;SDS011;68889;48.232;10.110;2023-07-29T16:55:18;3.53;;;2.40;;
79438;SDS011;68889;48.232;10.110;2023-07-29T16:57:45;4.50;;;2.92;;
79438;SDS011;68889;48.232;10.110;2023-07-29T17:02:36;4.07;;;2.33;;
79438;SDS011;68889;48.232;10.110;2023-07-29T17:07:29;3.20;;;2.40;;
79438;SDS011;68889;48.232;10.110;2023-07-29T17:09:55;4.75;;;2.53;;
79438;SDS011;68889;48.232;10.110;2023-07-29T17:14:46;4.18;;;2.35;;
79438;SDS011;68889;48.232;10.110;2023-07-29T17:19:37;4.28;;;2.42;;
79438;SDS011;68889;48.232;10.110;2023-07-29T17:22:04;2.85;;;2.30;;
79438;SDS011;68889;48.232;10.110;2023-07-29T17:26:55;3.95;;;2.25;;
79438;SDS011;68889;48.232;10.110;2023-07-29T17:29:20;3.15;;;2.28;;
79438;SDS011;68889;48.232;10.110;2023-07-29T17:34:11;3.15;;;2.20;;
79438;SDS011;68889;48.232;10.110;2023-07-29T17:39:03;2.90;;;2.40;;
79438;SDS011;68889;48.232;10.110;2023-07-29T17:41:28;3.45;;;2.65;;
79438;SDS011;68889;48.232;10.110;2023-07-29T17:43:54;3.67;;;2.33;;
79438;SDS011;68889;48.232;10.110;2023-07-29T17:48:45;4.50;;;2.58;;
79438;SDS011;68889;48.232;10.110;2023-07-29T17:51:11;3.10;;;2.40;;
79438;SDS011;68889;48.232;10.110;2023-07-29T17:56:02;4.57;;;2.60;;
79438;SDS011;68889;48.232;10.110;2023-07-29T18:00:53;4.43;;;2.60;;
79438;SDS011;68889;48.232;10.110;2023-07-29T18:03:21;3.03;;;2.60;;
79438;SDS011;68889;48.232;10.110;2023-07-29T18:08:12;3.58;;;2.50;;
79438;SDS011;68889;48.232;10.110;2023-07-29T18:13:06;3.53;;;2.80;;
79438;SDS011;68889;48.232;10.110;2023-07-29T18:17:57;3.13;;;2.20;;
79438;SDS011;68889;48.232;10.110;2023-07-29T18:22:51;3.28;;;2.30;;
79438;SDS011;68889;48.232;10.110;2023-07-29T18:25:19;3.22;;;2.53;;
79438;SDS011;68889;48.232;10.110;2023-07-29T18:27:45;4.05;;;2.70;;
79438;SDS011;68889;48.232;10.110;2023-07-29T18:30:11;4.07;;;2.85;;
79438;SDS011;68889;48.232;10.110;2023-07-29T18:32:41;3.88;;;2.30;;
79438;SDS011;68889;48.232;10.110;2023-07-29T18:35:07;3.50;;;2.75;;
79438;SDS011;68889;48.232;10.110;2023-07-29T18:37:34;3.67;;;2.58;;
79438;SDS011;68889;48.232;10.110;2023-07-29T18:40:00;3.80;;;2.80;;
79438;SDS011;68889;48.232;10.110;2023-07-29T18:42:28;4.13;;;2.42;;
79438;SDS011;68889;48.232;10.110;2023-07-29T18:47:19;3.10;;;2.42;;
79438;SDS011;68889;48.232;10.110;2023-07-29T18:52:10;3.60;;;2.47;;
79438;SDS011;68889;48.232;10.110;2023-07-29T18:57:03;5.82;;;2.40;;
79438;SDS011;68889;48.232;10.110;2023-07-29T19:01:54;3.20;;;2.38;;
79438;SDS011;68889;48.232;10.110;2023-07-29T19:06:45;4.13;;;2.80;;
79438;SDS011;68889;48.232;10.110;2023-07-29T19:11:36;4.10;;;2.90;;
79438;SDS011;68889;48.232;10.110;2023-07-29T19:16:28;4.75;;;2.88;;
79438;SDS011;68889;48.232;10.110;2023-07-29T19:18:54;4.10;;;2.63;;
79438;SDS011;68889;48.232;10.110;2023-07-29T19:23:45;3.33;;;2.55;;
79438;SDS011;68889;48.232;10.110;2023-07-29T19:26:11;3.58;;;2.75;;
79438;SDS011;68889;48.232;10.110;2023-07-29T19:31:11;3.50;;;2.50;;
79438;SDS011;68889;48.232;10.110;2023-07-29T19:33:38;3.63;;;2.65;;
79438;SDS011;68889;48.232;10.110;2023-07-29T19:36:06;3.30;;;2.50;;
79438;SDS011;68889;48.232;10.110;2023-07-29T19:41:00;3.65;;;2.60;;
79438;SDS011;68889;48.232;10.110;2023-07-29T19:43:26;4.35;;;2.97;;
79438;SDS011;68889;48.232;10.110;2023-07-29T19:48:17;5.97;;;3.13;;
79438;SDS011;68889;48.232;10.110;2023-07-29T19:53:12;4.32;;;2.70;;
79438;SDS011;68889;48.232;10.110;2023-07-29T19:58:03;4.53;;;2.80;;
79438;SDS011;68889;48.232;10.110;2023-07-29T20:00:37;6.53;;;2.72;;
79438;SDS011;68889;48.232;10.110;2023-07-29T20:03:21;5.00;;;2.75;;
79438;SDS011;68889;48.232;10.110;2023-07-29T20:06:00;3.28;;;2.70;;
79438;SDS011;68889;48.232;10.110;2023-07-29T20:08:35;3.90;;;2.95;;
79438;SDS011;68889;48.232;10.110;2023-07-29T20:11:04;3.33;;;2.47;;
79438;SDS011;68889;48.232;10.110;2023-07-29T20:15:58;4.55;;;2.75;;
79438;SDS011;68889;48.232;10.110;2023-07-29T20:18:24;3.65;;;2.70;;
79438;SDS011;68889;48.232;10.110;2023-07-29T20:20:52;3.65;;;2.78;;
79438;SDS011;68889;48.232;10.110;2023-07-29T20:25:47;3.38;;;2.60;;
79438;SDS011;68889;48.232;10.110;2023-07-29T20:28:18;3.60;;;2.67;;
79438;SDS011;68889;48.232;10.110;2023-07-29T20:30:49;3.67;;;2.50;;
79438;SDS011;68889;48.232;10.110;2023-07-29T20:33:24;4.13;;;2.30;;
79438;SDS011;68889;48.232;10.110;2023-07-29T20:35:54;4.05;;;3.00;;
79438;SDS011;68889;48.232;10.110;2023-07-29T20:38:23;3.65;;;2.70;;
79438;SDS011;68889;48.232;10.110;2023-07-29T20:40:57;4.40;;;2.83;;
79438;SDS011;68889;48.232;10.110;2023-07-29T20:43:25;3.25;;;2.20;;
79438;SDS011;68889;48.232;10.110;2023-07-29T20:45:54;3.88;;;2.55;;
79438;SDS011;68889;48.232;10.110;2023-07-29T20:48:19;3.05;;;2.40;;
79438;SDS011;68889;48.232;10.110;2023-07-29T20:53:11;2.85;;;2.20;;
79438;SDS011;68889;48.232;10.110;2023-07-29T20:58:02;3.97;;;2.60;;
79438;SDS011;68889;48.232;10.110;2023-07-29T21:00:28;3.08;;;2.10;;
79438;SDS011;68889;48.232;10.110;2023-07-29T21:02:55;2.72;;;2.17;;
79438;SDS011;68889;48.232;10.110;2023-07-29T21:05:21;3.38;;;2.60;;
79438;SDS011;68889;48.232;10.110;2023-07-29T21:07:48;3.47;;;2.33;;
79438;SDS011;68889;48.232;10.110;2023-07-29T21:10:14;4.05;;;2.30;;
79438;SDS011;68889;48.232;10.110;2023-07-29T21:12:40;2.63;;;2.08;;
79438;SDS011;68889;48.232;10.110;2023-07-29T21:17:31;4.60;;;2.65;;
79438;SDS011;68889;48.232;10.110;2023-07-29T21:22:24;3.53;;;2.13;;
79438;SDS011;68889;48.232;10.110;2023-07-29T21:24:50;2.70;;;2.08;;
79438;SDS011;68889;48.232;10.110;2023-07-29T21:27:15;3.45;;;2.40;;
79438;SDS011;68889;48.232;10.110;2023-07-29T21:32:06;3.50;;;2.10;;
79438;SDS011;68889;48.232;10.110;2023-07-29T21:36:58;2.67;;;2.08;;
79438;SDS011;68889;48.232;10.110;2023-07-29T21:41:49;2.92;;;2.10;;
79438;SDS011;68889;48.232;10.110;2023-07-29T21:44:14;3.00;;;2.00;;
79438;SDS011;68889;48.232;10.110;2023-07-29T21:49:05;2.33;;;1.60;;
79438;SDS011;68889;48.232;10.110;2023-07-29T21:51:31;3.60;;;1.95;;
79438;SDS011;68889;48.232;10.110;2023-07-29T21:53:56;2.45;;;1.77;;
79438;SDS011;68889;48.232;10.110;2023-07-29T21:56:22;2.63;;;1.90;;
79438;SDS011;68889;48.232;10.110;2023-07-29T21:58:47;3.55;;;2.05;;
79438;SDS011;68889;48.232;10.110;2023-07-29T22:01:13;3.08;;;1.83;;
79438;SDS011;68889;48.232;10.110;2023-07-29T22:06:04;3.63;;;2.08;;
79438;SDS011;68889;48.232;10.110;2023-07-29T22:08:31;4.53;;;2.42;;
79438;SDS011;68889;48.232;10.110;2023-07-29T22:13:28;2.70;;;2.10;;
79438;SDS011;68889;48.232;10.110;2023-07-29T22:18:19;2.55;;;2.00;;
79438;SDS011;68889;48.232;10.110;2023-07-29T22:23:16;2.53;;;1.88;;
79438;SDS011;68889;48.232;10.110;2023-07-29T22:25:42;2.75;;;1.67;;
79438;SDS011;68889;48.232;10.110;2023-07-29T22:28:08;4.05;;;2.10;;
79438;SDS011;68889;48.232;10.110;2023-07-29T22:30:35;3.22;;;1.90;;
79438;SDS011;68889;48.232;10.110;2023-07-29T22:33:01;3.47;;;2.05;;
79438;SDS011;68889;48.232;10.110;2023-07-29T22:35:27;2.85;;;1.90;;
79438;SDS011;68889;48.232;10.110;2023-07-29T22:37:53;2.58;;;2.00;;
79438;SDS011;68889;48.232;10.110;2023-07-29T22:40:18;3.00;;;2.10;;
79438;SDS011;68889;48.232;10.110;2023-07-29T22:42:44;2.97;;;1.77;;
79438;SDS011;68889;48.232;10.110;2023-07-29T22:47:35;3.42;;;2.28;;
79438;SDS011;68889;48.232;10.110;2023-07-29T22:52:26;2.30;;;1.73;;
79438;SDS011;68889;48.232;10.110;2023-07-29T22:54:51;2.92;;;2.05;;
79438;SDS011;68889;48.232;10.110;2023-07-29T22:57:17;3.28;;;1.95;;
79438;SDS011;68889;48.232;10.110;2023-07-29T22:59:48;2.90;;;1.70;;
79438;SDS011;68889;48.232;10.110;2023-07-29T23:02:19;2.67;;;2.17;;
79438;SDS011;68889;48.232;10.110;2023-07-29T23:04:46;2.47;;;1.70;;
79438;SDS011;68889;48.232;10.110;2023-07-29T23:09:37;3.22;;;1.80;;
79438;SDS011;68889;48.232;10.110;2023-07-29T23:14:28;2.95;;;1.80;;
79438;SDS011;68889;48.232;10.110;2023-07-29T23:19:19;3.13;;;1.92;;
79438;SDS011;68889;48.232;10.110;2023-07-29T23:21:44;3.08;;;2.17;;
79438;SDS011;68889;48.232;10.110;2023-07-29T23:26:35;2.80;;;2.20;;
79438;SDS011;68889;48.232;10.110;2023-07-29T23:31:26;2.63;;;1.90;;
79438;SDS011;68889;48.232;10.110;2023-07-29T23:33:52;4.80;;;2.15;;
79438;SDS011;68889;48.232;10.110;2023-07-29T23:36:17;3.42;;;1.77;;
79438;SDS011;68889;48.232;10.110;2023-07-29T23:38:43;3.65;;;2.03;;
79438;SDS011;68889;48.232;10.110;2023-07-29T23:41:09;3.65;;;2.17;;
79438;SDS011;68889;48.232;10.110;2023-07-29T23:46:00;3.10;;;2.10;;
79438;SDS011;68889;48.232;10.110;2023-07-29T23:50:51;3.13;;;2.17;;
79438;SDS011;68889;48.232;10.110;2023-07-29T23:55:42;3.55;;;1.90;;
79438;SDS011;68889;48.232;10.110;2023-07-29T23:58:07;2.65;;;2.00;;
